createdAt,value
2023-02-20T00:03:01.034Z,1011.37
2023-02-20T00:08:44.729Z,1011.41
2023-02-20T00:14:28.444Z,1011.36
2023-02-20T00:20:12.968Z,1011.3
2023-02-20T00:25:56.657Z,1011.33
2023-02-20T00:31:40.375Z,1011.33
2023-02-20T00:37:24.154Z,1011.25
2023-02-20T00:43:07.939Z,1011.25
2023-02-20T00:48:51.657Z,1011.22
2023-02-20T00:54:35.496Z,1011.1
2023-02-20T01:00:22.726Z,1011.03
2023-02-20T01:06:07.276Z,1010.91
2023-02-20T01:11:52.057Z,1010.86
2023-02-20T01:17:35.978Z,1010.7
2023-02-20T01:23:19.715Z,1010.64
2023-02-20T01:29:03.832Z,1010.64
2023-02-20T01:34:48.419Z,1010.61
2023-02-20T01:40:32.111Z,1010.54
2023-02-20T01:46:27.905Z,1010.49
2023-02-20T01:52:14.831Z,1010.48
2023-02-20T01:58:01.454Z,1010.47
2023-02-20T02:03:47.992Z,1010.43
2023-02-20T02:09:37.285Z,1010.29
2023-02-20T02:15:22.873Z,1010.2
2023-02-20T02:21:17.727Z,1010.2
2023-02-20T02:27:24.133Z,1010.09
2023-02-20T02:33:34.376Z,1010.14
2023-02-20T02:39:22.827Z,1010.13
2023-02-20T02:45:11.126Z,1010.09
2023-02-20T02:50:57.706Z,1010.09
2023-02-20T02:56:42.344Z,1010.09
2023-02-20T03:02:26.516Z,1010.07
2023-02-20T03:08:14.306Z,1009.93
2023-02-20T03:14:01.206Z,1009.96
2023-02-20T03:19:47.207Z,1009.93
2023-02-20T03:25:34.570Z,1009.88
2023-02-20T03:31:22.094Z,1009.86
2023-02-20T03:37:10.320Z,1009.87
2023-02-20T03:42:57.627Z,1009.95
2023-02-20T03:48:44.755Z,1009.89
2023-02-20T03:54:29.506Z,1009.97
2023-02-20T04:00:17.155Z,1009.97
2023-02-20T04:06:02.222Z,1009.98
2023-02-20T04:11:49.703Z,1009.99
2023-02-20T04:17:36.107Z,1010.01
2023-02-20T04:23:22.159Z,1010.07
2023-02-20T04:29:06.170Z,1010
2023-02-20T04:34:50.400Z,1010.1
2023-02-20T04:40:34.146Z,1010.07
2023-02-20T04:46:18.412Z,1010.04
2023-02-20T04:52:02.374Z,1010.04
2023-02-20T04:57:46.534Z,1010.06
2023-02-20T05:03:30.315Z,1010.06
2023-02-20T05:09:13.919Z,1009.99
2023-02-20T05:14:57.636Z,1009.98
2023-02-20T05:20:41.509Z,1010.05
2023-02-20T05:26:25.319Z,1009.99
2023-02-20T05:32:11.033Z,1009.95
2023-02-20T05:37:54.888Z,1009.84
2023-02-20T05:43:39.631Z,1009.8
2023-02-20T05:49:23.891Z,1009.77
2023-02-20T05:55:08.305Z,1009.75
2023-02-20T06:00:52.382Z,1009.71
2023-02-20T06:06:37.839Z,1009.6
2023-02-20T06:12:21.624Z,1009.59
2023-02-20T06:18:06.303Z,1009.49
2023-02-20T06:23:50.439Z,1009.59
2023-02-20T06:29:36.214Z,1009.57
2023-02-20T06:35:20.047Z,1009.46
2023-02-20T06:41:04.163Z,1009.53
2023-02-20T06:46:47.940Z,1009.78
2023-02-20T06:52:31.891Z,1009.82
2023-02-20T06:58:15.755Z,1009.8
2023-02-20T07:03:59.875Z,1009.88
2023-02-20T07:09:46.880Z,1009.99
2023-02-20T07:15:30.626Z,1010.08
2023-02-20T07:21:14.598Z,1010.22
2023-02-20T07:26:58.459Z,1010.29
2023-02-20T07:32:42.456Z,1010.23
2023-02-20T07:38:26.300Z,1010.27
2023-02-20T07:44:16.037Z,1010.23
2023-02-20T07:49:59.659Z,1010.24
2023-02-20T07:55:43.449Z,1010.32
2023-02-20T08:01:27.302Z,1010.28
2023-02-20T08:07:11.170Z,1010.37
2023-02-20T08:12:55.623Z,1010.37
2023-02-20T08:18:38.214Z,1010.27
2023-02-20T08:24:22.853Z,1010.31
2023-02-20T08:30:06.597Z,1010.22
2023-02-20T08:35:50.800Z,1010.23
2023-02-20T08:41:34.631Z,1010.23
2023-02-20T08:47:19.157Z,1010.29
2023-02-20T08:53:02.904Z,1010.34
2023-02-20T08:58:46.580Z,1010.36
2023-02-20T09:04:30.324Z,1010.31
2023-02-20T09:10:14.278Z,1010.31
2023-02-20T09:16:01.182Z,1010.36
2023-02-20T09:21:46.044Z,1010.41
2023-02-20T09:27:29.670Z,1010.31
2023-02-20T09:33:14.253Z,1010.22
2023-02-20T09:38:57.964Z,1010.2
2023-02-20T09:44:46.685Z,1010.19
2023-02-20T09:50:34.858Z,1010.28
2023-02-20T09:56:21.373Z,1010.27
2023-02-20T10:02:13.734Z,1010.28
2023-02-20T10:07:57.979Z,1010.34
2023-02-20T10:13:47.052Z,1010.2
2023-02-20T10:19:32.480Z,1010.11
2023-02-20T10:25:18.316Z,1010.09
2023-02-20T10:31:08.052Z,1010.14
2023-02-20T10:36:55.862Z,1010.07
2023-02-20T10:42:43.194Z,1010.03
2023-02-20T10:48:29.410Z,1010.13
2023-02-20T10:54:15.814Z,1010.06
2023-02-20T11:00:03.902Z,1010.11
2023-02-20T11:05:50.950Z,1010.1
2023-02-20T11:11:36.439Z,1010.05
2023-02-20T11:17:21.228Z,1009.87
2023-02-20T11:23:05.632Z,1009.75
2023-02-20T11:28:54.307Z,1009.68
2023-02-20T11:34:38.238Z,1009.81
2023-02-20T11:40:24.568Z,1009.64
2023-02-20T11:46:16.397Z,1009.64
2023-02-20T11:52:09.435Z,1009.59
2023-02-20T11:57:53.483Z,1009.5
2023-02-20T12:03:37.384Z,1009.32
2023-02-20T12:09:23.358Z,1009.35
2023-02-20T12:15:12.479Z,1009.31
2023-02-20T12:20:59.283Z,1009.17
2023-02-20T12:26:51.996Z,1009.23
2023-02-20T12:32:43.453Z,1009.19
2023-02-20T12:38:39.265Z,1009.05
2023-02-20T12:44:39.060Z,1009.04
2023-02-20T12:50:29.567Z,1008.97
2023-02-20T12:56:20.976Z,1008.87
2023-02-20T13:02:10.259Z,1008.75
2023-02-20T13:07:56.280Z,1008.83
2023-02-20T13:13:45.443Z,1008.78
2023-02-20T13:19:32.622Z,1008.66
2023-02-20T13:25:27.444Z,1008.37
2023-02-20T13:31:12.676Z,1008.14
2023-02-20T13:36:56.850Z,1008.11
2023-02-20T13:42:40.662Z,1007.98
2023-02-20T13:48:35.829Z,1008.12
2023-02-20T13:54:29.578Z,1008.12
2023-02-20T14:00:22.126Z,1008.08
2023-02-20T14:06:07.618Z,1008.12
2023-02-20T14:11:52.293Z,1008.09
2023-02-20T14:17:36.591Z,1007.95
2023-02-20T14:23:25.142Z,1007.86
2023-02-20T14:29:20.090Z,1007.8
2023-02-20T14:35:08.016Z,1007.7
2023-02-20T14:40:51.752Z,1007.61
2023-02-20T14:46:36.232Z,1007.59
2023-02-20T14:52:22.025Z,1007.58
2023-02-20T14:58:13.925Z,1007.56
2023-02-20T15:04:05.315Z,1007.47
2023-02-20T15:09:50.324Z,1007.52
2023-02-20T15:15:36.806Z,1007.46
2023-02-20T15:21:25.411Z,1007.44
2023-02-20T15:27:13.794Z,1007.4
2023-02-20T15:32:57.773Z,1007.43
2023-02-20T15:38:41.975Z,1007.34
2023-02-20T15:44:25.720Z,1007.44
2023-02-20T15:50:09.930Z,1007.3
2023-02-20T15:55:56.493Z,1007.24
2023-02-20T16:01:41.629Z,1007.22
2023-02-20T16:07:25.506Z,1007.27
2023-02-20T16:13:19.654Z,1007.11
2023-02-20T16:19:04.115Z,1007.23
2023-02-20T16:24:47.850Z,1007.07
2023-02-20T16:30:35.214Z,1007.05
2023-02-20T16:36:25.200Z,1006.97
2023-02-20T16:42:16.849Z,1007.04
2023-02-20T16:48:08.622Z,1006.99
2023-02-20T16:53:52.360Z,1006.93
2023-02-20T16:59:36.082Z,1007.02
2023-02-20T17:05:21.166Z,1006.91
2023-02-20T17:11:05.223Z,1007.02
2023-02-20T17:16:52.027Z,1006.94
2023-02-20T17:22:36.138Z,1007.03
2023-02-20T17:28:19.974Z,1007.12
2023-02-20T17:34:03.681Z,1007.18
2023-02-20T17:39:47.423Z,1007.16
2023-02-20T17:45:31.316Z,1007.23
2023-02-20T17:51:16.042Z,1007.14
2023-02-20T17:57:00.203Z,1007.28
2023-02-20T18:02:44.001Z,1007.35
2023-02-20T18:08:27.756Z,1007.32
2023-02-20T18:14:14.012Z,1007.47
2023-02-20T18:19:57.764Z,1007.34
2023-02-20T18:25:42.249Z,1007.32
2023-02-20T18:31:26.088Z,1007.1
2023-02-20T18:37:09.875Z,1007.18
2023-02-20T18:42:53.700Z,1007.03
2023-02-20T18:48:38.320Z,1007.03
2023-02-20T18:54:23.530Z,1007.07
2023-02-20T19:00:07.662Z,1006.96
2023-02-20T19:05:51.314Z,1007.04
2023-02-20T19:11:35.645Z,1006.99
2023-02-20T19:17:19.300Z,1007.03
2023-02-20T19:23:03.985Z,1006.95
2023-02-20T19:28:50.197Z,1006.78
2023-02-20T19:34:33.984Z,1006.7
2023-02-20T19:40:17.619Z,1006.67
2023-02-20T19:46:01.420Z,1006.7
2023-02-20T19:51:50.610Z,1006.76
2023-02-20T19:57:34.487Z,1006.72
2023-02-20T20:03:19.110Z,1006.66
2023-02-20T20:09:13.644Z,1006.63
2023-02-20T20:15:06.842Z,1006.55
2023-02-20T20:20:50.774Z,1006.57
2023-02-20T20:26:35.063Z,1006.61
2023-02-20T20:32:19.781Z,1006.5
2023-02-20T20:38:04.025Z,1006.48
2023-02-20T20:43:48.079Z,1006.41
2023-02-20T20:49:38.492Z,1006.34
2023-02-20T20:55:22.564Z,1006.36
2023-02-20T21:01:06.560Z,1006.34
2023-02-20T21:06:50.464Z,1006.27
2023-02-20T21:12:34.110Z,1006.28
2023-02-20T21:18:17.819Z,1006.29
2023-02-20T21:24:01.692Z,1006.42
2023-02-20T21:29:45.337Z,1006.38
2023-02-20T21:35:29.009Z,1006.43
2023-02-20T21:41:14.514Z,1006.46
2023-02-20T21:46:59.279Z,1006.38
2023-02-20T21:52:42.985Z,1006.46
2023-02-20T21:58:26.661Z,1006.45
2023-02-20T22:04:11.538Z,1006.4
2023-02-20T22:09:55.092Z,1006.37
2023-02-20T22:15:39.372Z,1006.22
2023-02-20T22:21:24.412Z,1006.33
2023-02-20T22:27:09.879Z,1006.33
2023-02-20T22:32:56.624Z,1006.31
2023-02-20T22:38:40.718Z,1006.21
2023-02-20T22:44:24.453Z,1006.23
2023-02-20T22:50:08.928Z,1006.26
2023-02-20T22:55:53.299Z,1006.26
2023-02-20T23:01:37.179Z,1006.21
2023-02-20T23:07:21.115Z,1006.21
2023-02-20T23:13:04.867Z,1006.2
2023-02-20T23:18:48.563Z,1006.15
2023-02-20T23:24:32.262Z,1006.08
2023-02-20T23:30:16.290Z,1006.11
2023-02-20T23:35:59.835Z,1006.04
2023-02-20T23:41:44.167Z,1006.17
2023-02-20T23:47:28.862Z,1006.16
2023-02-20T23:53:12.590Z,1006.14
2023-02-20T23:58:56.274Z,1006.02
